KSTC/STC METAR and TAF weather

Enter ICAO airport designator
Station Type Date Time Source
KSTC METAR 2019/07/18 10:53 UTC NOAA

KSTC 181053Z AUTO 00000KT 10SM BKN045 21/20 A2971 RMK AO2 SLP060 T02110200


Station Type Date Time Source
KSTC Decoded METAR 2019/07/18 10:53 UTC NOAA

ST. CLOUD REGIONAL AIRPORT, MN, United States (KSTC) 45-33N 094-03W
Jul 18, 2019 - 06:53 AM EDT / 2019.07.18 1053 UTC
Wind: Calm:0
Visibility: 10 mile(s):0
Sky conditions: mostly cloudy
Temperature: 70.0 F (21.1 C)
Dew Point: 68.0 F (20.0 C)
Relative Humidity: 93%
Pressure (altimeter): 29.71 in. Hg (1006 hPa)
ob: KSTC 181053Z AUTO 00000KT 10SM BKN045 21/20 A2971 RMK AO2 SLP060 T02110200
cycle: 11

Station Type Date Time Source
KSTC TAF 2019/07/18 06:22 UTC NOAA

TAF KSTC 180520Z 1806/1906 VRB03KT P6SM FEW150
FM181800 24007KT P6SM FEW040
FM190100 VRB03KT P6SM SKC

Example: see airport list